Time;durP1;ratioP1;P1;durP2;ratioP2;P2;SDS_P1;SDS_P2;PMS_P1;PMS_P2;Temp;Humidity;BMP_temperature;BMP_pressure;BME280_temperature;BME280_humidity;BME280_pressure;Samples;Min_cycle;Max_cycle;Signal;HPM_P1;HPM_P2
2023/08/08 04:48:14;;;;;;;3.90;1.70;;;;;;;16.17;69.94;100614.94;4757319;30;20196;-72
2023/08/08 06:25:38;;;;;;;5.53;1.93;;;;;;;17.01;70.01;100610.19;4747961;29;20345;-62
2023/08/08 06:28:13;;;;;;;7.33;1.50;;;;;;;17.05;69.91;100610.66;4780457;29;20326;-60
2023/08/08 06:30:43;;;;;;;6.20;1.60;;;;;;;17.15;68.98;100603.19;4822908;29;20210;-62
2023/08/08 06:33:13;;;;;;;4.83;2.03;;;;;;;17.12;69.15;100615.09;4851669;29;20211;-61
2023/08/08 06:35:43;;;;;;;4.40;1.60;;;;;;;17.21;68.07;100613.97;4851966;29;20246;-61
2023/08/08 06:38:14;;;;;;;3.80;1.37;;;;;;;17.12;68.51;100609.75;4849261;29;20219;-59
2023/08/08 06:40:46;;;;;;;5.80;1.63;;;;;;;17.16;68.01;100612.84;4851877;29;20254;-61
2023/08/08 06:43:15;;;;;;;3.60;1.53;;;;;;;17.24;67.34;100607.38;4851881;29;20215;-61
2023/08/08 06:45:42;;;;;;;3.40;1.20;;;;;;;17.32;67.44;100617.19;4851922;29;20226;-62
2023/08/08 06:48:11;;;;;;;7.73;1.50;;;;;;;17.40;67.07;100609.88;4854018;29;20313;-62
2023/08/08 06:50:39;;;;;;;4.47;1.30;;;;;;;17.44;66.64;100608.44;4852872;29;20823;-60
2023/08/08 06:53:07;;;;;;;5.03;1.73;;;;;;;17.50;66.28;100604.22;4854483;29;20229;-63
2023/08/08 06:55:47;;;;;;;4.13;1.60;;;;;;;17.55;66.21;100607.97;4852163;29;20243;-63
2023/08/08 06:58:15;;;;;;;7.27;2.03;;;;;;;17.60;64.95;100605.53;4853314;29;20206;-62
2023/08/08 07:00:47;;;;;;;6.67;1.40;;;;;;;17.72;64.67;100594.34;4850044;29;20214;-63
2023/08/08 07:03:16;;;;;;;2.87;1.47;;;;;;;17.73;64.37;100596.00;4851080;29;20225;-62
2023/08/08 07:05:44;;;;;;;4.07;1.30;;;;;;;17.78;64.04;100597.06;4851646;29;20278;-63
2023/08/08 07:08:12;;;;;;;3.57;1.27;;;;;;;17.84;63.35;100598.19;4851370;29;20242;-63
2023/08/08 07:10:41;;;;;;;6.53;1.50;;;;;;;17.89;62.71;100603.78;4854088;29;20215;-61
2023/08/08 07:13:15;;;;;;;3.80;1.47;;;;;;;17.94;62.69;100606.75;4854807;29;20226;-61
2023/08/08 07:15:43;;;;;;;2.30;1.17;;;;;;;17.98;62.37;100610.69;4851634;29;20280;-59
2023/08/08 07:18:16;;;;;;;3.60;1.40;;;;;;;18.04;62.23;100610.72;4852159;29;20222;-61
2023/08/08 07:20:47;;;;;;;3.20;1.23;;;;;;;18.12;62.23;100609.75;4851703;29;20207;-60
2023/08/08 07:23:18;;;;;;;7.03;1.37;;;;;;;18.15;60.78;100601.34;4851569;29;20288;-62
2023/08/08 07:25:46;;;;;;;3.37;1.30;;;;;;;18.28;59.08;100609.50;4863350;29;20768;-62
2023/08/08 07:28:18;;;;;;;3.07;1.07;;;;;;;18.25;59.33;100601.00;4872309;29;20553;-61
2023/08/08 07:30:51;;;;;;;3.03;1.33;;;;;;;18.27;59.89;100601.63;4868890;29;20218;-62
2023/08/08 07:33:19;;;;;;;4.50;1.23;;;;;;;18.31;59.63;100603.72;4869337;29;20214;-63
2023/08/08 07:35:48;;;;;;;3.37;1.10;;;;;;;18.34;58.90;100603.34;4870017;29;20242;-61
2023/08/08 07:38:16;;;;;;;2.90;1.30;;;;;;;18.36;59.27;100598.63;4872110;29;20218;-62
2023/08/08 07:40:45;;;;;;;5.63;1.33;;;;;;;18.39;58.92;100595.53;4872173;29;20322;-63
2023/08/08 07:43:21;;;;;;;3.30;1.07;;;;;;;18.49;58.78;100597.03;4869492;29;20221;-62
2023/08/08 07:45:52;;;;;;;3.80;0.93;;;;;;;18.57;57.58;100591.53;4871952;29;20214;-60
2023/08/08 07:48:21;;;;;;;3.17;1.20;;;;;;;18.59;57.73;100589.50;4869067;29;20229;-62
2023/08/08 07:50:49;;;;;;;5.73;1.33;;;;;;;18.61;57.43;100582.06;4870111;29;20218;-62
2023/08/08 07:53:26;;;;;;;4.73;1.30;;;;;;;18.67;57.79;100592.84;4871648;29;20327;-64
2023/08/08 07:55:54;;;;;;;4.80;1.30;;;;;;;18.74;57.56;100587.50;4869289;29;20222;-64
2023/08/08 07:58:27;;;;;;;2.53;1.13;;;;;;;18.86;57.47;100593.16;4870457;29;20623;-63
2023/08/08 08:01:04;;;;;;;3.50;1.40;;;;;;;18.91;57.62;100594.22;4869127;29;20563;-63
2023/08/08 08:03:35;;;;;;;2.90;1.50;;;;;;;18.93;56.82;100586.78;4869916;29;20213;-62
2023/08/08 08:06:10;;;;;;;7.30;1.20;;;;;;;18.92;56.58;100586.97;4872067;29;20210;-62
2023/08/08 08:08:38;;;;;;;8.67;1.30;;;;;;;18.98;56.50;100580.84;4871399;29;20268;-62
2023/08/08 08:11:06;;;;;;;1.80;0.97;;;;;;;18.96;56.05;100586.41;4871768;29;20217;-61
2023/08/08 08:13:36;;;;;;;3.57;1.07;;;;;;;19.00;56.96;100587.63;4870638;29;20301;-62
2023/08/08 08:16:04;;;;;;;2.53;1.23;;;;;;;19.04;56.63;100586.22;4871135;29;20277;-61
2023/08/08 08:18:33;;;;;;;4.70;1.33;;;;;;;19.04;56.35;100580.84;4873663;29;20249;-62
2023/08/08 08:21:02;;;;;;;4.43;1.33;;;;;;;19.01;53.60;100581.25;4871969;29;20218;-60
2023/08/08 08:23:32;;;;;;;4.57;1.23;;;;;;;19.03;52.77;100581.88;4872185;29;20274;-59
2023/08/08 08:26:03;;;;;;;3.77;1.20;;;;;;;19.00;51.88;100582.25;4859422;29;20225;-61
2023/08/08 08:28:32;;;;;;;3.87;1.10;;;;;;;19.05;51.41;100579.81;4854190;29;21152;-63
2023/08/08 08:31:07;;;;;;;5.57;1.30;;;;;;;19.22;51.86;100574.91;4853388;29;20245;-61
2023/08/08 08:33:35;;;;;;;3.83;1.07;;;;;;;19.27;51.04;100564.38;4854199;29;20883;-62
2023/08/08 08:36:03;;;;;;;3.07;1.17;;;;;;;19.41;51.54;100584.09;4854494;29;20267;-62
2023/08/08 08:38:34;;;;;;;6.90;1.43;;;;;;;19.49;51.16;100578.53;4854547;29;20226;-62
2023/08/08 08:41:05;;;;;;;4.47;1.13;;;;;;;19.49;49.93;100574.00;4853595;29;20755;-62
2023/08/08 08:43:33;;;;;;;3.23;1.10;;;;;;;19.63;50.57;100577.53;4853351;29;20219;-61
2023/08/08 08:46:03;;;;;;;4.53;1.43;;;;;;;19.71;50.22;100574.66;4852913;29;20243;-62
2023/08/08 08:48:33;;;;;;;3.70;1.30;;;;;;;19.79;50.06;100573.66;4854648;29;20214;-62
2023/08/08 08:51:04;;;;;;;3.20;1.07;;;;;;;19.82;49.09;100576.72;4854333;29;20552;-61
2023/08/08 08:53:38;;;;;;;3.00;0.90;;;;;;;19.86;50.11;100575.31;4854244;29;20238;-62
2023/08/08 08:56:08;;;;;;;3.10;1.00;;;;;;;19.86;49.11;100567.22;4854018;29;20226;-61
2023/08/08 08:58:37;;;;;;;3.43;1.20;;;;;;;19.83;48.48;100577.56;4853555;29;20215;-61
2023/08/08 09:01:15;;;;;;;7.10;1.40;;;;;;;19.97;48.43;100570.31;4853534;29;20225;-60
2023/08/08 09:03:46;;;;;;;2.83;1.10;;;;;;;20.03;48.22;100581.09;4852743;29;20206;-61
2023/08/08 09:06:20;;;;;;;3.20;0.93;;;;;;;20.07;48.62;100568.03;4854139;29;20321;-63
2023/08/08 09:08:49;;;;;;;6.13;1.70;;;;;;;20.15;48.54;100570.50;4852714;29;20289;-67
2023/08/08 09:11:35;;;;;;;3.77;1.33;;;;;;;20.25;48.08;100562.84;4853447;29;20214;-66
2023/08/08 09:14:03;;;;;;;3.03;1.00;;;;;;;20.35;47.97;100559.75;4852529;29;20272;-65
2023/08/08 09:16:35;;;;;;;3.13;1.10;;;;;;;20.52;48.89;100567.19;4853021;29;20672;-65
2023/08/08 09:19:04;;;;;;;4.87;1.27;;;;;;;20.71;47.74;100567.34;4854138;29;20218;-65
2023/08/08 09:21:36;;;;;;;2.07;0.97;;;;;;;20.88;47.59;100568.53;4852834;29;20250;-65
2023/08/08 09:24:05;;;;;;;4.07;1.33;;;;;;;21.06;47.31;100555.19;4854893;29;20210;-63
2023/08/08 09:26:34;;;;;;;4.20;1.87;;;;;;;21.20;47.36;100559.50;4855569;29;20215;-64
2023/08/08 09:29:03;;;;;;;4.70;1.33;;;;;;;21.32;46.53;100563.19;4856274;29;20564;-65
2023/08/08 09:31:31;;;;;;;2.53;1.10;;;;;;;21.46;46.17;100555.03;4857034;29;20215;-66
2023/08/08 09:34:00;;;;;;;3.90;1.40;;;;;;;21.55;46.09;100561.81;4856775;29;20219;-64
2023/08/08 09:36:29;;;;;;;2.97;1.17;;;;;;;21.67;45.72;100560.06;4856383;29;20242;-64
2023/08/08 09:39:01;;;;;;;4.75;1.08;;;;;;;21.68;45.07;100562.56;4855730;29;20219;-69
2023/08/08 09:41:29;;;;;;;2.60;1.30;;;;;;;21.71;45.43;100564.00;4856034;29;20210;-66
2023/08/08 09:43:57;;;;;;;3.10;1.20;;;;;;;21.84;44.95;100555.78;4855599;29;20226;-66
2023/08/08 09:46:25;;;;;;;1.92;1.08;;;;;;;21.88;44.68;100553.47;4855940;29;20725;-65
2023/08/08 09:48:54;;;;;;;6.05;1.65;;;;;;;22.00;45.00;100555.25;4855550;29;20275;-65
2023/08/08 09:51:23;;;;;;;5.70;1.20;;;;;;;22.09;44.48;100551.25;4855966;29;20824;-64
2023/08/08 09:53:52;;;;;;;3.55;1.35;;;;;;;22.12;44.88;100552.69;4856836;29;20211;-66
2023/08/08 09:56:22;;;;;;;3.65;1.65;;;;;;;22.18;45.40;100546.38;4856925;29;20632;-66
2023/08/08 09:58:56;;;;;;;3.40;1.33;;;;;;;22.23;45.12;100548.44;4855151;29;20219;-65
2023/08/08 10:01:27;;;;;;;2.65;1.40;;;;;;;22.33;44.63;100546.06;4855294;29;20290;-66
2023/08/08 10:03:57;;;;;;;3.25;1.20;;;;;;;22.24;44.07;100548.22;4857052;29;20301;-65
2023/08/08 10:06:27;;;;;;;2.72;1.33;;;;;;;22.33;43.75;100544.19;4856904;29;20222;-65
2023/08/08 10:08:56;;;;;;;4.57;1.27;;;;;;;22.38;44.03;100547.03;4855088;29;20234;-64
2023/08/08 10:11:25;;;;;;;5.93;1.33;;;;;;;22.31;43.47;100545.44;4855519;29;20219;-65
2023/08/08 10:13:54;;;;;;;4.13;1.48;;;;;;;22.30;42.32;100541.91;4852928;29;20219;-67
2023/08/08 10:16:24;;;;;;;3.30;1.42;;;;;;;22.37;42.75;100541.84;4856759;29;20234;-66
2023/08/08 10:19:00;;;;;;;3.15;1.83;;;;;;;22.35;42.43;100538.53;4854584;29;20215;-64
2023/08/08 10:21:29;;;;;;;3.65;1.50;;;;;;;22.17;42.67;100549.28;4855556;29;20696;-66
2023/08/08 10:24:10;;;;;;;2.22;1.00;;;;;;;22.10;42.19;100549.38;4856218;29;20310;-65
2023/08/08 10:26:56;;;;;;;3.20;1.10;;;;;;;22.22;41.73;100552.19;4867347;29;20214;-65
2023/08/08 10:29:26;;;;;;;4.03;1.48;;;;;;;22.30;41.80;100543.78;4874012;29;20225;-65
2023/08/08 10:35:11;;;;;;;5.47;1.50;;;;;;;22.58;41.13;100536.00;4871270;29;20217;-66
2023/08/08 10:37:49;;;;;;;5.47;1.20;;;;;;;22.71;41.37;100538.56;4872749;29;21145;-66
2023/08/08 10:40:19;;;;;;;3.70;1.27;;;;;;;22.88;40.73;100539.63;4874014;29;20209;-66
2023/08/08 10:42:55;;;;;;;6.88;1.83;;;;;;;22.98;40.77;100539.09;4873057;29;20222;-67
2023/08/08 10:45:31;;;;;;;4.88;1.73;;;;;;;23.08;40.96;100538.53;4873066;29;20217;-66
2023/08/08 10:48:18;;;;;;;3.28;1.23;;;;;;;23.11;40.52;100530.81;4872722;29;20226;-66
2023/08/08 10:50:47;;;;;;;5.15;1.50;;;;;;;23.20;41.74;100531.31;4871952;29;20765;-66
2023/08/08 10:53:16;;;;;;;7.35;1.90;;;;;;;23.26;41.24;100527.69;4873254;29;20224;-67
2023/08/08 10:55:46;;;;;;;37.67;6.63;;;;;;;23.40;40.61;100523.72;4873762;29;20763;-65
2023/08/08 10:58:52;;;;;;;59.78;10.15;;;;;;;23.49;40.47;100530.50;4873147;29;20210;-66
2023/08/08 11:01:26;;;;;;;10.13;2.30;;;;;;;23.59;40.08;100522.63;4868913;29;20261;-67
2023/08/08 11:04:01;;;;;;;5.55;1.15;;;;;;;23.58;39.94;100514.75;4872117;29;20304;-66
2023/08/08 11:06:34;;;;;;;3.72;1.40;;;;;;;23.69;39.92;100523.94;4873741;29;20206;-67
2023/08/08 11:09:02;;;;;;;31.67;7.30;;;;;;;23.55;40.38;100521.47;4872948;29;20908;-67
2023/08/08 11:11:39;;;;;;;15.50;3.40;;;;;;;23.37;40.10;100526.91;4871807;29;20250;-66
2023/08/08 11:14:28;;;;;;;5.85;1.40;;;;;;;23.24;39.70;100524.38;4799927;29;20337;-64
2023/08/08 11:17:06;;;;;;;2.75;1.08;;;;;;;23.17;40.83;100527.19;4854492;29;20257;-66
2023/08/08 11:19:40;;;;;;;2.92;1.40;;;;;;;23.03;40.29;100527.59;4870925;29;20214;-67
2023/08/08 11:22:11;;;;;;;4.60;1.40;;;;;;;22.90;40.44;100517.78;4871620;29;20217;-64
2023/08/08 11:24:40;;;;;;;3.05;1.30;;;;;;;22.75;40.77;100520.88;4872108;29;20226;-66
2023/08/08 11:27:10;;;;;;;5.75;1.65;;;;;;;22.65;40.88;100520.53;4871249;29;20210;-67
2023/08/08 11:29:45;;;;;;;4.32;1.30;;;;;;;22.77;40.71;100523.34;4872274;29;20238;-71
2023/08/08 11:32:13;;;;;;;4.32;1.17;;;;;;;23.02;40.50;100518.66;4872549;29;20210;-64
2023/08/08 11:34:49;;;;;;;4.88;1.40;;;;;;;23.10;39.96;100515.63;4872229;29;20218;-66
2023/08/08 11:37:26;;;;;;;3.92;1.30;;;;;;;23.04;39.99;100523.84;4873049;29;20225;-64
2023/08/08 11:39:55;;;;;;;5.82;1.30;;;;;;;22.96;40.32;100513.31;4869789;29;20220;-65
2023/08/08 11:42:28;;;;;;;3.40;1.17;;;;;;;22.70;40.61;100517.16;4873474;29;20210;-66
2023/08/08 11:44:57;;;;;;;7.15;1.10;;;;;;;22.60;41.31;100506.88;4872537;29;20293;-65
2023/08/08 11:47:36;;;;;;;3.75;1.08;;;;;;;22.51;41.10;100509.06;4871277;29;20664;-64
2023/08/08 11:50:20;;;;;;;5.00;1.40;;;;;;;22.47;40.53;100498.91;4872625;29;20246;-66
2023/08/08 11:53:06;;;;;;;3.58;1.40;;;;;;;22.48;40.52;100505.97;4871278;29;20274;-67
2023/08/08 11:55:38;;;;;;;4.00;1.35;;;;;;;22.49;40.89;100510.34;4862616;29;20222;-67
2023/08/08 11:58:20;;;;;;;3.25;1.30;;;;;;;22.51;39.70;100497.44;4873268;29;20222;-66
2023/08/08 12:00:54;;;;;;;5.18;1.10;;;;;;;22.59;39.58;100496.31;4872002;29;20302;-68
2023/08/08 12:03:47;;;;;;;3.78;1.20;;;;;;;22.73;39.40;100495.06;4863031;29;20710;-65
2023/08/08 12:06:21;;;;;;;3.53;1.00;;;;;;;22.72;38.61;100483.44;4871761;29;20316;-64
2023/08/08 12:08:58;;;;;;;2.95;1.00;;;;;;;22.75;38.76;100488.44;4871977;29;20242;-66
2023/08/08 12:11:38;;;;;;;2.92;1.25;;;;;;;22.74;39.00;100489.47;4872371;29;20217;-63
2023/08/08 12:14:30;;;;;;;3.15;0.90;;;;;;;22.74;38.93;100503.00;4872137;29;20224;-66
2023/08/08 12:17:42;;;;;;;3.47;1.30;;;;;;;22.77;37.69;100499.03;4872859;29;20328;-66
2023/08/08 12:20:24;;;;;;;3.33;1.10;;;;;;;22.75;38.11;100491.13;4858146;29;20257;-62
2023/08/08 12:22:53;;;;;;;4.15;1.20;;;;;;;22.73;38.38;100506.72;4871407;29;20217;-65
2023/08/08 12:25:22;;;;;;;2.22;0.80;;;;;;;22.73;37.67;100489.66;4869449;29;20245;-66
2023/08/08 12:28:15;;;;;;;3.28;1.45;;;;;;;22.76;37.69;100481.97;4872655;29;20721;-67
2023/08/08 12:31:07;;;;;;;3.00;1.10;;;;;;;22.73;38.06;100490.50;4838575;29;20214;-65
2023/08/08 12:33:59;;;;;;;3.13;1.20;;;;;;;22.70;38.89;100484.72;4872301;29;20217;-65
2023/08/08 12:36:52;;;;;;;2.55;1.10;;;;;;;22.66;38.66;100481.66;4854877;29;20245;-66
2023/08/08 12:42:06;;;;;;;6.13;1.40;;;;;;;22.79;39.10;100484.22;4870257;29;20210;-66
2023/08/08 12:44:34;;;;;;;6.22;1.30;;;;;;;22.81;38.32;100490.22;4871707;29;20219;-66
2023/08/08 12:47:20;;;;;;;;;;;;;;;;;;;;;
2023/08/08 12:53:04;;;;;;;4.45;1.50;;;;;;;22.82;38.32;100474.81;4870351;29;20293;-63
2023/08/08 12:55:32;;;;;;;7.32;1.30;;;;;;;22.73;38.17;100489.66;4871236;29;20254;-66
2023/08/08 12:58:18;;;;;;;4.78;1.60;;;;;;;22.66;38.12;100486.22;4876377;29;21232;-66
2023/08/08 13:00:50;;;;;;;3.20;1.25;;;;;;;22.60;38.99;100479.88;4874621;29;20689;-65
2023/08/08 13:09:23;;;;;;;3.58;1.30;;;;;;;22.47;39.68;100485.41;4874982;29;20214;-61
2023/08/08 13:11:58;;;;;;;4.07;1.60;;;;;;;22.44;40.31;100475.88;4873738;29;20422;-62
2023/08/08 13:14:28;;;;;;;5.40;1.42;;;;;;;22.49;40.27;100475.22;4874658;29;20985;-63
2023/08/08 13:17:02;;;;;;;3.42;1.23;;;;;;;22.59;39.38;100482.78;4876303;29;20672;-61
2023/08/08 13:19:34;;;;;;;3.15;1.23;;;;;;;22.51;39.38;100478.53;4875689;29;20301;-63
2023/08/08 13:22:06;;;;;;;5.22;1.08;;;;;;;22.48;40.01;100477.09;4875707;29;20266;-62
2023/08/08 13:24:35;;;;;;;2.38;1.02;;;;;;;22.44;40.81;100472.34;4874699;29;20652;-62
2023/08/08 13:27:03;;;;;;;2.92;1.20;;;;;;;22.43;40.18;100470.69;4876217;29;20207;-61
2023/08/08 13:29:35;;;;;;;3.20;1.13;;;;;;;22.39;40.19;100466.81;4874655;29;20211;-62
2023/08/08 13:32:03;;;;;;;2.42;0.93;;;;;;;22.35;40.40;100468.28;4875202;29;20297;-62
2023/08/08 13:34:34;;;;;;;2.90;0.90;;;;;;;22.35;40.80;100463.72;4874869;29;20217;-61
2023/08/08 13:37:20;;;;;;;4.05;1.25;;;;;;;22.28;40.51;100468.38;4874773;29;20210;-62
2023/08/08 13:39:48;;;;;;;5.78;1.40;;;;;;;22.17;40.74;100463.72;4875436;29;20206;-62
2023/08/08 13:42:19;;;;;;;4.88;1.20;;;;;;;22.23;41.03;100454.72;4875926;29;20233;-61
2023/08/08 13:44:47;;;;;;;4.45;1.30;;;;;;;22.33;41.50;100462.31;4876224;29;20637;-64
2023/08/08 13:47:15;;;;;;;2.28;1.02;;;;;;;22.42;41.51;100455.56;4874860;29;20856;-63
2023/08/08 13:49:45;;;;;;;3.17;1.00;;;;;;;22.48;40.58;100457.34;4876172;29;20684;-63
2023/08/08 13:52:15;;;;;;;5.38;1.40;;;;;;;22.57;40.57;100453.28;4874382;29;20307;-61
2023/08/08 13:54:43;;;;;;;2.80;1.20;;;;;;;22.57;41.09;100457.88;4874354;29;20214;-62
2023/08/08 13:57:14;;;;;;;6.57;1.25;;;;;;;22.46;40.79;100459.44;4875944;29;20707;-62
2023/08/08 13:59:44;;;;;;;2.72;1.02;;;;;;;22.37;41.13;100460.78;4874283;29;20251;-59
2023/08/08 14:02:45;;;;;;;4.30;1.38;;;;;;;22.30;41.27;100457.34;4874665;29;20254;-65
2023/08/08 14:05:28;;;;;;;3.30;1.45;;;;;;;22.22;41.77;100454.94;4862158;29;20213;-60
2023/08/08 14:08:02;;;;;;;7.15;1.35;;;;;;;22.20;41.62;100440.84;4871566;29;20234;-62
2023/08/08 14:10:35;;;;;;;4.38;1.48;;;;;;;22.27;42.11;100446.97;4872902;29;20312;-60
2023/08/08 14:13:08;;;;;;;3.45;1.30;;;;;;;22.24;42.32;100444.75;4874277;29;20220;-61
2023/08/08 14:15:57;;;;;;;3.83;0.95;;;;;;;22.27;42.08;100442.41;4867834;29;20220;-61
2023/08/08 14:18:32;;;;;;;4.70;1.00;;;;;;;22.25;42.63;100439.13;4874419;29;20221;-62
2023/08/08 14:21:11;;;;;;;4.15;1.20;;;;;;;22.17;42.33;100441.28;4873693;29;20210;-63
2023/08/08 14:23:46;;;;;;;3.70;1.20;;;;;;;22.08;42.47;100443.44;4873512;29;20219;-61
2023/08/08 14:26:15;;;;;;;8.52;1.15;;;;;;;22.03;42.91;100437.91;4873240;29;20228;-65
2023/08/08 14:28:46;;;;;;;3.65;1.27;;;;;;;21.97;43.11;100436.94;4874149;29;20206;-62
2023/08/08 14:31:15;;;;;;;6.32;1.50;;;;;;;21.96;42.97;100446.03;4874479;29;20214;-61
2023/08/08 14:33:48;;;;;;;6.95;3.42;;;;;;;21.99;43.16;100442.91;4871651;29;20222;-62
2023/08/08 14:36:17;;;;;;;3.95;1.33;;;;;;;21.98;43.17;100438.59;4874246;29;20485;-63
2023/08/08 14:38:46;;;;;;;5.70;1.00;;;;;;;21.93;43.33;100446.47;4873397;29;20233;-61
2023/08/08 14:41:23;;;;;;;4.95;1.40;;;;;;;21.93;43.42;100448.34;4874372;29;20225;-62
2023/08/08 14:43:51;;;;;;;2.55;1.10;;;;;;;21.86;42.96;100444.91;4873514;29;20286;-61
2023/08/08 14:46:23;;;;;;;6.88;1.48;;;;;;;21.78;43.00;100449.53;4874598;29;20232;-61
2023/08/08 14:49:01;;;;;;;6.63;1.52;;;;;;;21.75;43.40;100451.84;4872545;29;20210;-61
2023/08/08 14:51:30;;;;;;;4.70;1.02;;;;;;;21.69;44.00;100458.97;4867305;29;20210;-61
2023/08/08 14:53:58;;;;;;;6.43;1.83;;;;;;;21.60;44.41;100472.94;4873867;29;20568;-60
2023/08/08 14:56:30;;;;;;;2.47;1.30;;;;;;;21.54;44.28;100463.03;4874874;29;20289;-61
2023/08/08 14:59:00;;;;;;;2.80;1.30;;;;;;;21.50;44.44;100467.22;4875712;29;20233;-61
2023/08/08 15:01:41;;;;;;;8.23;1.50;;;;;;;21.49;44.66;100468.25;4874111;29;20210;-62
2023/08/08 15:04:15;;;;;;;4.53;1.53;;;;;;;21.47;45.19;100470.34;4873857;29;20206;-61
2023/08/08 15:06:49;;;;;;;4.17;1.27;;;;;;;21.44;45.42;100478.88;4874684;29;20214;-62
2023/08/08 15:09:18;;;;;;;4.43;1.20;;;;;;;21.37;45.50;100479.72;4874976;29;20257;-61
2023/08/08 15:14:58;;;;;;;3.50;1.20;;;;;;;21.36;46.28;100474.59;4872630;29;20221;-62
2023/08/08 15:17:32;;;;;;;3.17;1.30;;;;;;;21.38;46.59;100478.69;4866651;29;20635;-62
2023/08/08 15:20:01;;;;;;;2.53;1.23;;;;;;;21.44;46.82;100478.88;4873326;29;20226;-63
2023/08/08 15:22:33;;;;;;;2.17;1.08;;;;;;;21.43;46.38;100477.22;4875338;29;20808;-62
2023/08/08 15:25:11;;;;;;;4.00;1.37;;;;;;;21.42;46.46;100479.09;4872422;29;20250;-63
2023/08/08 15:28:07;;;;;;;2.45;1.30;;;;;;;21.42;46.31;100476.41;4872458;29;20650;-63
2023/08/08 15:30:39;;;;;;;6.10;1.47;;;;;;;21.40;46.35;100471.22;4850373;29;20226;-62
2023/08/08 15:33:07;;;;;;;4.90;1.30;;;;;;;21.43;46.69;100482.63;4872848;29;20210;-61
2023/08/08 15:35:36;;;;;;;2.53;1.10;;;;;;;21.44;46.70;100485.09;4872862;29;20214;-62
2023/08/08 15:38:09;;;;;;;3.40;1.43;;;;;;;21.45;46.50;100485.94;4873393;29;20742;-62
2023/08/08 15:40:41;;;;;;;6.20;1.90;;;;;;;21.40;46.78;100490.09;4872826;29;20668;-61
2023/08/08 15:43:10;;;;;;;4.30;1.60;;;;;;;21.43;46.90;100488.03;4873203;29;20218;-61
2023/08/08 15:45:38;;;;;;;2.73;1.27;;;;;;;21.40;46.87;100482.00;4872616;29;20219;-62
2023/08/08 15:48:07;;;;;;;5.27;1.40;;;;;;;21.41;47.08;100488.22;4873064;29;20870;-61
2023/08/08 15:50:36;;;;;;;3.27;1.40;;;;;;;21.39;47.73;100479.53;4874654;29;20733;-63
2023/08/08 15:53:07;;;;;;;3.10;1.50;;;;;;;21.34;47.62;100474.81;4873457;29;20246;-61
2023/08/08 15:55:42;;;;;;;4.57;1.50;;;;;;;21.33;48.19;100473.16;4871985;29;20217;-60
2023/08/08 15:58:11;;;;;;;7.47;1.60;;;;;;;21.32;48.26;100476.06;4873302;29;20270;-63
2023/08/08 16:00:45;;;;;;;5.13;1.63;;;;;;;21.32;48.29;100474.19;4871010;29;20211;-61
2023/08/08 16:03:13;;;;;;;3.47;1.30;;;;;;;21.33;48.43;100475.00;4871341;29;20214;-62
2023/08/08 16:08:42;;;;;;;2.90;1.43;;;;;;;21.36;48.98;100470.03;4862411;29;20261;-61
2023/08/08 16:11:30;;;;;;;3.50;1.80;;;;;;;21.40;49.03;100467.69;4873771;29;20254;-61
2023/08/08 16:14:05;;;;;;;4.53;1.80;;;;;;;21.40;49.49;100476.63;4872417;29;20270;-61
2023/08/08 16:16:45;;;;;;;6.30;2.17;;;;;;;21.42;49.45;100478.28;4872507;29;20218;-60
2023/08/08 16:19:19;;;;;;;6.07;1.87;;;;;;;21.39;49.26;100466.03;4872745;29;20221;-61
2023/08/08 16:26:03;;;;;;;4.03;1.50;;;;;;;21.38;49.69;100476.00;4872547;29;20260;-61
2023/08/08 16:28:39;;;;;;;4.90;1.60;;;;;;;21.34;50.09;100461.31;4872024;29;20297;-62
2023/08/08 16:31:16;;;;;;;5.43;2.07;;;;;;;21.37;50.32;100474.34;4871240;29;20210;-62
2023/08/08 16:34:23;;;;;;;3.83;1.40;;;;;;;21.42;50.29;100478.28;4795691;29;20319;-61
2023/08/08 16:36:55;;;;;;;8.57;2.23;;;;;;;21.39;50.33;100477.66;4795360;29;20933;-62
2023/08/08 16:39:23;;;;;;;3.63;1.90;;;;;;;21.37;50.47;100482.44;4796480;29;20246;-62
2023/08/08 16:41:58;;;;;;;4.13;1.73;;;;;;;21.34;50.20;100480.19;4795017;29;20224;-62
2023/08/08 16:44:42;;;;;;;6.97;2.53;;;;;;;21.31;50.40;100480.63;4790451;29;20220;-62
2023/08/08 16:47:10;;;;;;;8.50;1.90;;;;;;;21.26;50.81;100480.47;4791370;29;20335;-63
2023/08/08 16:49:40;;;;;;;7.13;1.97;;;;;;;21.22;50.96;100494.56;4787419;29;20258;-65
2023/08/08 16:52:18;;;;;;;5.33;2.07;;;;;;;21.18;51.13;100494.19;4793029;29;20244;-62
2023/08/08 16:58:26;;;;;;;6.63;2.10;;;;;;;21.11;51.08;100501.44;4792335;29;20220;-62
2023/08/08 17:01:29;;;;;;;7.83;2.30;;;;;;;21.09;50.82;100505.41;4792169;29;20337;-61
2023/08/08 17:04:00;;;;;;;5.57;1.73;;;;;;;21.02;51.20;100497.38;4792801;29;20339;-61
2023/08/08 17:06:51;;;;;;;5.30;1.60;;;;;;;21.03;51.64;100494.44;4793490;29;20308;-61
2023/08/08 17:09:22;;;;;;;5.57;1.67;;;;;;;21.00;51.51;100484.09;4788962;29;20213;-62
2023/08/08 17:12:09;;;;;;;3.57;1.50;;;;;;;20.98;51.74;100486.19;4854422;29;20333;-62
2023/08/08 17:14:50;;;;;;;5.73;1.67;;;;;;;20.99;51.86;100477.06;4869778;29;20549;-61
2023/08/08 17:17:35;;;;;;;8.03;1.80;;;;;;;20.99;52.10;100481.63;4871163;29;20856;-63
2023/08/08 17:20:18;;;;;;;6.37;1.73;;;;;;;20.97;52.34;100489.09;4871073;29;20222;-62
2023/08/08 17:23:00;;;;;;;6.10;1.43;;;;;;;20.96;52.61;100482.03;4870684;29;20277;-61
2023/08/08 17:25:47;;;;;;;5.87;1.80;;;;;;;20.95;52.86;100475.81;4864160;29;20206;-62
2023/08/08 17:28:39;;;;;;;5.00;1.50;;;;;;;20.94;53.11;100473.34;4870180;29;20233;-62
2023/08/08 17:31:26;;;;;;;5.47;2.00;;;;;;;20.92;53.27;100475.44;4872111;29;20207;-62
2023/08/08 17:34:38;;;;;;;6.23;1.90;;;;;;;20.94;53.47;100471.47;4871363;29;20210;-61
2023/08/08 17:41:15;;;;;;;4.50;1.57;;;;;;;20.86;53.54;100487.06;4811035;29;20293;-61
2023/08/08 17:43:49;;;;;;;4.77;1.57;;;;;;;20.88;53.83;100485.00;4861450;29;20867;-62
2023/08/08 17:46:21;;;;;;;3.67;1.90;;;;;;;20.84;53.97;100483.78;4877114;29;21058;-62
2023/08/08 17:49:08;;;;;;;3.87;1.70;;;;;;;20.83;54.03;100482.13;4875056;29;20569;-61
2023/08/08 17:56:19;;;;;;;8.03;1.90;;;;;;;20.81;54.24;100501.19;4739111;30;20280;-62
2023/08/08 18:10:32;;;;;;;13.60;9.73;;;;;;;20.76;54.54;100494.81;4689048;30;20258;-62
2023/08/08 18:13:33;;;;;;;6.27;2.13;;;;;;;20.75;54.43;100487.75;4758500;29;20222;-62
2023/08/08 18:19:57;;;;;;;4.10;1.50;;;;;;;20.69;55.02;100486.72;4816028;29;20297;-61
2023/08/08 18:26:16;;;;;;;;;;;;;;;;;;;;;
2023/08/08 18:28:55;;;;;;;5.80;1.90;;;;;;;20.67;54.53;100483.41;4873724;29;20794;-61
2023/08/08 18:35:00;;;;;;;4.00;1.50;;;;;;;20.65;54.69;100474.75;4866305;29;20212;-62
2023/08/08 18:38:11;;;;;;;9.83;2.20;;;;;;;20.65;54.97;100480.97;4865404;29;20218;-62
2023/08/08 18:40:46;;;;;;;6.10;1.90;;;;;;;20.63;55.30;100477.66;4850006;29;20233;-60
2023/08/08 18:43:44;;;;;;;3.97;1.70;;;;;;;20.61;54.95;100471.63;4872463;29;20655;-61
2023/08/08 18:46:37;;;;;;;8.83;2.07;;;;;;;20.62;54.53;100475.16;4874183;29;20907;-62
2023/08/08 18:49:51;;;;;;;7.87;2.13;;;;;;;20.59;55.22;100476.41;4869304;29;20218;-62
2023/08/08 18:52:45;;;;;;;6.30;1.77;;;;;;;20.57;55.06;100475.81;4872949;29;20245;-62
2023/08/08 18:58:11;;;;;;;3.77;1.70;;;;;;;20.54;55.73;100487.00;4814262;29;20227;-62
2023/08/08 19:00:51;;;;;;;4.93;2.10;;;;;;;20.51;56.32;100491.97;4872961;29;20281;-61
2023/08/08 19:03:41;;;;;;;6.93;2.33;;;;;;;20.49;56.20;100502.97;4863271;29;20211;-62
2023/08/08 19:06:17;;;;;;;16.50;2.63;;;;;;;20.47;56.01;100498.84;4874570;29;20611;-62
2023/08/08 19:09:35;;;;;;;4.93;1.97;;;;;;;20.44;56.27;100497.38;4868891;29;20325;-61
2023/08/08 19:12:21;;;;;;;7.10;1.70;;;;;;;20.40;56.48;100498.88;4872392;29;20246;-62
2023/08/08 19:18:04;;;;;;;6.37;1.90;;;;;;;20.35;56.65;100485.19;4866482;29;20720;-63
2023/08/08 19:24:19;;;;;;;4.67;1.80;;;;;;;20.28;57.62;100497.81;4862361;29;20214;-62
2023/08/08 19:27:41;;;;;;;4.87;1.97;;;;;;;20.27;57.74;100498.84;4862728;29;20320;-63
2023/08/08 19:30:19;;;;;;;7.43;1.70;;;;;;;20.23;58.15;100498.44;4867526;29;20225;-61
2023/08/08 19:32:47;;;;;;;7.03;2.30;;;;;;;20.20;58.54;100498.88;4860009;29;20218;-61
2023/08/08 19:35:52;;;;;;;13.17;2.50;;;;;;;20.22;58.67;100504.06;4851061;29;20212;-61